Terminal Aerodrome Forecast
Issued by NWS

Home | Current Version | Previous Version | Text Only | Print | Product List | Glossary On
Versions: 1 2 3 4 5 6 7 8 9 10 11 12 13 14 15 16
102
FTUS43 KLSX 200520
TAFUIN
TAF
KUIN 200520Z 2006/2106 17011KT P6SM BKN250 WS012/23040KT
     FM200800 17011KT P6SM VCTS BKN040CB WS012/23040KT
     FM201200 19009KT P6SM BKN090
     FM201600 23006KT P6SM BKN050
     FM201900 28006KT P6SM BKN050
     FM202100 33009KT P6SM BKN050
     FM210300 04007KT P6SM SCT070=

USA.gov is the U.S. government's official web portal to all federal, state and local government web resources and services.